Time;durP1;ratioP1;P1;durP2;ratioP2;P2;SDS_P1;SDS_P2;PMS_P1;PMS_P2;Temp;Humidity;BMP_temperature;BMP_pressure;BME280_temperature;BME280_humidity;BME280_pressure;Samples;Min_cycle;Max_cycle;Signal;HPM_P1;HPM_P2
2023/07/20 00:03:25;;;;;;;2.20;1.00;;;;;;;;;;10364458;28;20045;-91
2023/07/20 00:08:31;;;;;;;2.15;1.00;;;;;;;;;;10367581;28;20125;-91
2023/07/20 00:13:45;;;;;;;1.70;0.90;;;;;;;;;;10371267;28;20097;-91
2023/07/20 00:19:07;;;;;;;1.55;0.85;;;;;;;;;;10391996;28;20688;-90
2023/07/20 00:24:16;;;;;;;2.03;0.90;;;;;;;;;;10378243;28;20037;-91
2023/07/20 00:29:20;;;;;;;1.63;0.80;;;;;;;;;;10315034;28;20043;-91
2023/07/20 00:34:27;;;;;;;1.25;0.80;;;;;;;;;;10329782;28;20046;-90
2023/07/20 00:39:35;;;;;;;2.03;1.20;;;;;;;;;;10308716;28;20409;-90
2023/07/20 00:44:43;;;;;;;1.27;0.82;;;;;;;;;;10332909;28;20057;-90
2023/07/20 00:49:52;;;;;;;2.38;1.13;;;;;;;;;;10326246;28;20051;-91
2023/07/20 00:54:59;;;;;;;1.80;1.00;;;;;;;;;;10304222;28;20516;-91
2023/07/20 01:00:12;;;;;;;1.30;0.90;;;;;;;;;;10316458;28;20046;-90
2023/07/20 01:05:36;;;;;;;1.48;1.00;;;;;;;;;;10336183;28;20038;-90
2023/07/20 01:10:45;;;;;;;1.60;0.90;;;;;;;;;;10315374;28;20431;-91
2023/07/20 01:15:54;;;;;;;2.30;0.85;;;;;;;;;;10313567;28;20071;-91
2023/07/20 01:21:03;;;;;;;1.42;1.10;;;;;;;;;;10299611;28;20052;-90
2023/07/20 01:26:25;;;;;;;1.30;1.15;;;;;;;;;;10328406;28;20050;-91
2023/07/20 01:31:36;;;;;;;1.50;0.90;;;;;;;;;;10316021;28;20054;-90
2023/07/20 01:36:43;;;;;;;1.73;1.10;;;;;;;;;;10349042;28;20050;-90
2023/07/20 01:41:50;;;;;;;1.17;0.82;;;;;;;;;;10303962;28;20054;-90
2023/07/20 01:46:59;;;;;;;2.90;1.15;;;;;;;;;;10287501;28;20081;-92
2023/07/20 01:52:07;;;;;;;2.25;1.00;;;;;;;;;;10298874;28;20125;-91
2023/07/20 01:57:13;;;;;;;1.70;1.10;;;;;;;;;;10323073;28;20038;-91
2023/07/20 02:02:21;;;;;;;1.90;1.00;;;;;;;;;;10331095;28;20074;-93
2023/07/20 02:07:28;;;;;;;1.75;0.93;;;;;;;;;;10346847;28;20041;-91
2023/07/20 02:12:32;;;;;;;1.20;0.90;;;;;;;;;;10324876;28;20038;-91
2023/07/20 02:17:43;;;;;;;1.95;0.85;;;;;;;;;;10314907;28;20552;-90
2023/07/20 02:22:47;;;;;;;1.35;0.80;;;;;;;;;;10334058;28;20038;-90
2023/07/20 02:27:51;;;;;;;1.60;0.90;;;;;;;;;;10322940;28;20054;-91
2023/07/20 02:33:14;;;;;;;1.13;0.80;;;;;;;;;;10375552;28;20136;-91
2023/07/20 02:38:18;;;;;;;1.90;1.17;;;;;;;;;;10344749;28;20598;-91
2023/07/20 02:43:29;;;;;;;2.45;1.10;;;;;;;;;;10330966;28;20069;-91
2023/07/20 02:48:51;;;;;;;1.30;0.93;;;;;;;;;;10378948;28;20070;-91
2023/07/20 02:54:06;;;;;;;1.58;1.08;;;;;;;;;;10388309;28;20032;-90
2023/07/20 02:59:20;;;;;;;2.38;1.25;;;;;;;;;;10343013;28;20038;-91
2023/07/20 03:04:31;;;;;;;3.22;1.17;;;;;;;;;;10345669;28;20116;-92
2023/07/20 03:09:41;;;;;;;1.63;0.80;;;;;;;;;;10347082;28;20043;-91
2023/07/20 03:14:54;;;;;;;1.35;0.90;;;;;;;;;;10331509;28;20043;-92
2023/07/20 03:20:09;;;;;;;1.40;1.02;;;;;;;;;;10347025;28;20048;-91
2023/07/20 03:25:13;;;;;;;1.70;1.10;;;;;;;;;;10352415;28;20054;-91
2023/07/20 03:30:21;;;;;;;1.40;1.10;;;;;;;;;;10352598;28;20080;-91
2023/07/20 03:35:34;;;;;;;1.70;1.05;;;;;;;;;;10336103;28;20047;-91
2023/07/20 03:40:55;;;;;;;1.58;1.10;;;;;;;;;;10339206;28;20042;-92
2023/07/20 03:46:06;;;;;;;1.80;1.17;;;;;;;;;;10325958;28;20046;-91
2023/07/20 03:51:14;;;;;;;2.28;1.27;;;;;;;;;;10354774;28;20046;-91
2023/07/20 03:56:19;;;;;;;1.83;1.10;;;;;;;;;;10345755;28;20049;-91
2023/07/20 04:01:37;;;;;;;2.08;1.20;;;;;;;;;;10331075;28;20096;-92
2023/07/20 04:06:49;;;;;;;1.73;1.00;;;;;;;;;;10337770;28;20061;-91
2023/07/20 04:11:58;;;;;;;;;;;;;;;;;;10331210;28;20045;-92
2023/07/20 04:17:19;;;;;;;;;;;;;;;;;;;;;
2023/07/20 04:23:06;;;;;;;2.83;1.00;;;;;;;;;;10396086;28;20039;-94
2023/07/20 04:28:42;;;;;;;1.95;1.13;;;;;;;;;;10369329;28;20042;-94
2023/07/20 04:34:25;;;;;;;1.95;1.02;;;;;;;;;;10377950;28;20066;-93
2023/07/20 04:40:00;;;;;;;2.22;1.40;;;;;;;;;;10303865;28;20049;-92
2023/07/20 04:45:29;;;;;;;1.27;0.90;;;;;;;;;;10356547;28;20053;-93
2023/07/20 04:50:50;;;;;;;1.33;0.90;;;;;;;;;;10352196;28;20282;-93
2023/07/20 04:56:23;;;;;;;;;;;;;;;;;;;;;
2023/07/20 05:02:06;;;;;;;1.00;0.85;;;;;;;;;;10356087;28;20049;-93
2023/07/20 05:07:24;;;;;;;1.27;0.90;;;;;;;;;;10308981;28;20070;-90
2023/07/20 09:32:26;;;;;;;0.95;0.70;;;;;;;;;;10318802;28;20129;-89
2023/07/20 09:37:36;;;;;;;1.05;0.63;;;;;;;;;;10312375;28;20058;-89
2023/07/20 09:42:41;;;;;;;1.92;0.85;;;;;;;;;;10342176;28;20092;-89
2023/07/20 09:47:47;;;;;;;1.55;0.93;;;;;;;;;;10329882;28;20045;-89
2023/07/20 09:53:17;;;;;;;1.83;0.82;;;;;;;;;;10345728;28;20403;-87
2023/07/20 09:58:25;;;;;;;1.30;1.00;;;;;;;;;;10350558;28;20656;-90
2023/07/20 10:03:35;;;;;;;1.15;0.82;;;;;;;;;;10329608;28;20046;-90
2023/07/20 10:08:43;;;;;;;1.42;0.75;;;;;;;;;;10323356;28;20143;-89
2023/07/20 10:13:54;;;;;;;1.33;0.43;;;;;;;;;;10316529;28;20071;-89
2023/07/20 10:19:07;;;;;;;1.23;0.93;;;;;;;;;;10332350;28;20030;-88
2023/07/20 10:24:15;;;;;;;1.50;0.70;;;;;;;;;;10330674;28;20042;-88
2023/07/20 10:29:24;;;;;;;1.20;0.80;;;;;;;;;;10349251;28;20041;-90
2023/07/20 10:34:52;;;;;;;1.50;0.70;;;;;;;;;;10334066;28;20046;-88
2023/07/20 10:39:57;;;;;;;1.17;1.00;;;;;;;;;;10190711;29;20415;-83
2023/07/20 10:45:02;;;;;;;1.08;0.80;;;;;;;;;;10193541;29;20131;-83
2023/07/20 10:50:09;;;;;;;2.05;1.08;;;;;;;;;;10196423;29;20054;-83
2023/07/20 10:55:15;;;;;;;0.40;0.40;;;;;;;;;;10194428;29;20044;-83
2023/07/20 11:00:22;;;;;;;0.90;0.70;;;;;;;;;;10180581;29;20470;-83
2023/07/20 11:05:38;;;;;;;0.68;0.68;;;;;;;;;;10218345;29;20074;-83
2023/07/20 11:10:42;;;;;;;1.15;0.60;;;;;;;;;;10205415;29;20047;-82
2023/07/20 11:16:01;;;;;;;0.68;0.43;;;;;;;;;;10216817;28;20047;-83
2023/07/20 11:21:09;;;;;;;0.43;0.40;;;;;;;;;;10218891;29;20126;-83
2023/07/20 11:26:12;;;;;;;2.30;1.13;;;;;;;;;;10220514;29;20467;-83
2023/07/20 11:31:16;;;;;;;1.40;1.00;;;;;;;;;;10224869;29;20075;-83
2023/07/20 11:36:21;;;;;;;3.13;0.90;;;;;;;;;;10232795;28;20062;-83
2023/07/20 11:41:27;;;;;;;0.52;0.52;;;;;;;;;;10209463;29;20051;-83
2023/07/20 11:46:31;;;;;;;0.50;0.50;;;;;;;;;;10229910;29;20122;-83
2023/07/20 11:51:36;;;;;;;1.33;0.50;;;;;;;;;;10227076;29;20519;-84
2023/07/20 11:56:43;;;;;;;0.45;0.45;;;;;;;;;;10214766;29;20058;-83
2023/07/20 12:01:48;;;;;;;1.08;0.38;;;;;;;;;;10193223;29;20055;-83
2023/07/20 12:06:54;;;;;;;0.60;0.50;;;;;;;;;;10190011;29;20592;-83
2023/07/20 12:11:58;;;;;;;0.60;0.60;;;;;;;;;;10216788;28;20070;-83
2023/07/20 12:17:01;;;;;;;0.47;0.40;;;;;;;;;;10210237;29;20122;-83
2023/07/20 12:22:07;;;;;;;0.82;0.40;;;;;;;;;;10223434;28;20039;-83
2023/07/20 12:27:16;;;;;;;0.98;0.50;;;;;;;;;;10234348;29;20453;-83
2023/07/20 12:32:21;;;;;;;0.65;0.40;;;;;;;;;;10227577;28;20047;-83
2023/07/20 12:37:26;;;;;;;0.60;0.60;;;;;;;;;;10228514;29;20124;-83
2023/07/20 12:42:29;;;;;;;;;;;;;;;;;;10222685;29;20131;-84
2023/07/20 12:47:32;;;;;;;1.55;0.32;;;;;;;;;;10232733;29;19933;-83
2023/07/20 12:52:39;;;;;;;0.45;0.30;;;;;;;;;;10211456;29;20039;-83
2023/07/20 12:57:43;;;;;;;2.58;0.80;;;;;;;;;;10196041;28;20130;-83
2023/07/20 13:02:46;;;;;;;0.70;0.60;;;;;;;;;;10221772;29;20716;-83
2023/07/20 13:07:51;;;;;;;0.63;0.50;;;;;;;;;;10220302;29;20058;-83
2023/07/20 13:12:58;;;;;;;1.42;0.63;;;;;;;;;;10217988;29;20078;-82
2023/07/20 13:18:01;;;;;;;0.82;0.40;;;;;;;;;;10228741;28;20139;-83
2023/07/20 13:23:07;;;;;;;2.20;0.50;;;;;;;;;;10206565;29;20055;-83
2023/07/20 13:28:10;;;;;;;;;;;;;;;;;;10213413;29;20043;-83
2023/07/20 13:33:13;;;;;;;1.90;0.60;;;;;;;;;;10207781;29;19922;-83
2023/07/20 13:38:22;;;;;;;0.20;0.20;;;;;;;;;;10226591;29;20138;-83
2023/07/20 13:43:25;;;;;;;;;;;;;;;;;;10218728;29;20066;-83
2023/07/20 13:48:28;;;;;;;0.77;0.32;;;;;;;;;;10228576;29;20440;-83
2023/07/20 13:53:33;;;;;;;0.45;0.40;;;;;;;;;;10209395;28;20073;-83
2023/07/20 13:58:39;;;;;;;0.55;0.50;;;;;;;;;;10204857;29;20677;-83
2023/07/20 14:03:45;;;;;;;1.55;0.57;;;;;;;;;;10221705;29;20055;-83
2023/07/20 14:08:50;;;;;;;0.57;0.40;;;;;;;;;;10219707;29;20058;-83
2023/07/20 14:13:54;;;;;;;0.67;0.50;;;;;;;;;;10196382;29;20071;-83
2023/07/20 14:18:58;;;;;;;0.82;0.47;;;;;;;;;;10220905;29;20063;-83
2023/07/20 14:24:02;;;;;;;1.38;0.70;;;;;;;;;;10193570;29;20509;-83
2023/07/20 14:29:06;;;;;;;0.75;0.40;;;;;;;;;;10230008;28;20094;-83
2023/07/20 14:34:10;;;;;;;0.38;0.38;;;;;;;;;;10202159;29;20043;-82
2023/07/20 14:39:15;;;;;;;0.60;0.30;;;;;;;;;;10226390;29;20039;-83
2023/07/20 14:44:20;;;;;;;0.30;0.30;;;;;;;;;;10216062;29;20122;-83
2023/07/20 14:49:23;;;;;;;;;;;;;;;;;;10219686;28;20078;-83
2023/07/20 14:54:28;;;;;;;0.85;0.28;;;;;;;;;;10229115;29;19933;-83
2023/07/20 14:59:31;;;;;;;0.90;0.40;;;;;;;;;;10214320;29;20123;-83
2023/07/20 15:04:35;;;;;;;1.55;0.50;;;;;;;;;;10218785;29;20311;-84
2023/07/20 15:09:39;;;;;;;1.75;0.35;;;;;;;;;;10216870;29;20047;-83
2023/07/20 15:14:44;;;;;;;1.33;0.50;;;;;;;;;;10217380;29;20062;-83
2023/07/20 15:19:47;;;;;;;0.37;0.37;;;;;;;;;;10210940;29;20050;-83
2023/07/20 15:24:52;;;;;;;0.60;0.40;;;;;;;;;;10206909;29;20051;-83
2023/07/20 15:29:56;;;;;;;1.23;0.40;;;;;;;;;;10214410;29;20125;-83
2023/07/20 15:34:59;;;;;;;0.38;0.38;;;;;;;;;;10211612;29;20289;-82
2023/07/20 15:40:16;;;;;;;1.98;0.65;;;;;;;;;;10194496;29;20213;-82
2023/07/20 15:45:23;;;;;;;1.05;0.47;;;;;;;;;;10207353;29;20579;-83
2023/07/20 15:50:26;;;;;;;1.17;0.40;;;;;;;;;;10193921;28;20630;-83
2023/07/20 15:55:31;;;;;;;0.60;0.30;;;;;;;;;;10212639;29;20043;-82
2023/07/20 16:00:35;;;;;;;0.40;0.40;;;;;;;;;;10197534;29;20043;-83
2023/07/20 16:05:38;;;;;;;1.15;0.40;;;;;;;;;;10208720;29;20051;-83
2023/07/20 16:10:43;;;;;;;0.30;0.30;;;;;;;;;;10207949;28;20136;-82
2023/07/20 16:15:46;;;;;;;0.80;0.30;;;;;;;;;;10219228;28;20138;-82
2023/07/20 16:20:53;;;;;;;0.50;0.30;;;;;;;;;;10227113;29;20953;-83
2023/07/20 16:25:57;;;;;;;1.40;0.20;;;;;;;;;;10211253;29;20044;-83
2023/07/20 16:31:01;;;;;;;0.30;0.30;;;;;;;;;;10210703;29;20527;-82
2023/07/20 16:36:09;;;;;;;0.40;0.30;;;;;;;;;;10214318;28;20040;-83
2023/07/20 16:41:13;;;;;;;0.40;0.40;;;;;;;;;;10197365;29;20071;-83
2023/07/20 16:46:17;;;;;;;0.60;0.47;;;;;;;;;;10197307;28;20562;-83
2023/07/20 16:51:23;;;;;;;0.47;0.30;;;;;;;;;;10194740;29;20075;-83
2023/07/20 16:56:28;;;;;;;0.43;0.40;;;;;;;;;;10161703;29;20043;-83
2023/07/20 17:01:33;;;;;;;1.00;0.30;;;;;;;;;;10183713;29;20059;-82
2023/07/20 17:06:37;;;;;;;0.30;0.30;;;;;;;;;;10186267;29;20297;-84
2023/07/20 17:11:42;;;;;;;0.98;0.47;;;;;;;;;;10179556;29;20677;-84
2023/07/20 17:16:46;;;;;;;0.40;0.30;;;;;;;;;;10167626;29;20079;-83
2023/07/20 17:21:50;;;;;;;0.30;0.30;;;;;;;;;;10178611;29;20059;-84
2023/07/20 17:26:55;;;;;;;0.68;0.30;;;;;;;;;;10211226;29;20134;-84
2023/07/20 17:32:01;;;;;;;0.50;0.40;;;;;;;;;;10200641;29;20044;-83
2023/07/20 17:37:05;;;;;;;1.02;0.40;;;;;;;;;;10207594;28;20043;-83
2023/07/20 17:42:13;;;;;;;0.68;0.30;;;;;;;;;;10214203;29;20697;-83
2023/07/20 17:47:19;;;;;;;0.75;0.40;;;;;;;;;;10191178;29;20078;-84
2023/07/20 17:52:23;;;;;;;0.28;0.28;;;;;;;;;;10207887;29;20071;-84
2023/07/20 17:57:28;;;;;;;0.20;0.20;;;;;;;;;;10214797;28;20051;-83
2023/07/20 18:02:32;;;;;;;0.65;0.40;;;;;;;;;;10223968;28;20638;-83
2023/07/20 18:07:35;;;;;;;0.30;0.30;;;;;;;;;;10229066;28;20521;-83
2023/07/20 18:12:41;;;;;;;0.68;0.50;;;;;;;;;;10225839;28;20064;-83
2023/07/20 18:17:44;;;;;;;0.20;0.20;;;;;;;;;;10220688;29;20051;-82
2023/07/20 18:22:47;;;;;;;0.82;0.30;;;;;;;;;;10223862;28;20079;-83
2023/07/20 18:27:52;;;;;;;0.50;0.50;;;;;;;;;;10211728;29;20087;-83
2023/07/20 18:32:55;;;;;;;0.68;0.30;;;;;;;;;;10221182;29;20098;-83
2023/07/20 18:37:59;;;;;;;1.00;0.40;;;;;;;;;;10219980;29;20664;-83
2023/07/20 18:43:03;;;;;;;0.80;0.25;;;;;;;;;;10223711;28;20161;-83
2023/07/20 18:48:07;;;;;;;1.83;0.98;;;;;;;;;;10201076;29;20498;-83
2023/07/20 18:53:10;;;;;;;2.03;0.25;;;;;;;;;;10193254;28;20538;-82
2023/07/20 18:58:15;;;;;;;0.80;0.40;;;;;;;;;;10222271;29;20064;-83
2023/07/20 19:03:18;;;;;;;0.60;0.40;;;;;;;;;;10208256;28;20439;-83
2023/07/20 19:08:21;;;;;;;0.47;0.40;;;;;;;;;;10208654;29;20114;-83
2023/07/20 19:13:26;;;;;;;0.73;0.38;;;;;;;;;;10191305;29;20127;-83
2023/07/20 19:18:30;;;;;;;0.20;0.20;;;;;;;;;;10194977;29;20154;-82
2023/07/20 19:23:33;;;;;;;0.38;0.30;;;;;;;;;;10200963;29;20122;-83
2023/07/20 19:28:39;;;;;;;0.40;0.40;;;;;;;;;;10226641;29;20039;-83
2023/07/20 19:33:42;;;;;;;0.73;0.40;;;;;;;;;;10206843;29;20139;-83
2023/07/20 19:38:46;;;;;;;1.45;0.30;;;;;;;;;;10215148;29;20048;-82
2023/07/20 19:43:50;;;;;;;0.50;0.50;;;;;;;;;;10210490;29;20308;-83
2023/07/20 19:48:54;;;;;;;2.20;0.50;;;;;;;;;;10196975;29;20586;-83
2023/07/20 19:53:58;;;;;;;0.93;0.43;;;;;;;;;;10202956;29;20059;-83
2023/07/20 19:59:05;;;;;;;0.50;0.50;;;;;;;;;;10192995;29;20051;-83
2023/07/20 20:04:09;;;;;;;2.05;0.80;;;;;;;;;;10190607;29;20043;-83
2023/07/20 20:09:16;;;;;;;0.75;0.60;;;;;;;;;;10207318;29;20076;-83
2023/07/20 20:14:20;;;;;;;0.68;0.50;;;;;;;;;;10219721;28;20047;-83
2023/07/20 20:19:24;;;;;;;0.70;0.40;;;;;;;;;;10220585;29;20146;-83
2023/07/20 20:24:27;;;;;;;1.10;0.60;;;;;;;;;;10222638;28;20079;-83
2023/07/20 20:29:32;;;;;;;0.30;0.30;;;;;;;;;;10197155;29;20503;-84
2023/07/20 20:34:35;;;;;;;0.95;0.63;;;;;;;;;;10205844;29;20130;-83
2023/07/20 20:39:38;;;;;;;0.50;0.50;;;;;;;;;;10207810;29;20073;-84
2023/07/20 20:44:43;;;;;;;0.45;0.43;;;;;;;;;;10215499;29;20681;-83
2023/07/20 20:49:47;;;;;;;0.73;0.50;;;;;;;;;;10225803;29;20138;-84
2023/07/20 20:54:50;;;;;;;0.60;0.50;;;;;;;;;;10190733;29;20068;-84
2023/07/20 20:59:58;;;;;;;0.60;0.40;;;;;;;;;;10198973;28;20052;-83
2023/07/20 21:05:03;;;;;;;0.50;0.50;;;;;;;;;;10205842;29;20783;-84
2023/07/20 21:10:07;;;;;;;0.73;0.50;;;;;;;;;;10200436;29;20082;-84
2023/07/20 21:15:12;;;;;;;1.05;0.40;;;;;;;;;;10218499;29;20044;-83
2023/07/20 21:20:15;;;;;;;2.30;0.70;;;;;;;;;;10191220;29;20050;-83
2023/07/20 21:25:19;;;;;;;1.45;0.60;;;;;;;;;;10226015;28;20134;-84
2023/07/20 21:30:26;;;;;;;0.70;0.55;;;;;;;;;;10207038;29;20131;-84
2023/07/20 21:35:30;;;;;;;0.90;0.40;;;;;;;;;;10212753;28;20134;-84
2023/07/20 21:40:36;;;;;;;0.90;0.52;;;;;;;;;;10211222;28;20159;-83
2023/07/20 21:45:41;;;;;;;0.77;0.60;;;;;;;;;;10230138;29;20078;-83
2023/07/20 21:50:48;;;;;;;0.77;0.40;;;;;;;;;;10219340;29;20566;-83
2023/07/20 21:55:51;;;;;;;0.93;0.55;;;;;;;;;;10199787;29;20070;-82
2023/07/20 22:00:58;;;;;;;0.50;0.50;;;;;;;;;;10208097;28;20126;-83
2023/07/20 22:06:03;;;;;;;1.42;0.60;;;;;;;;;;10219497;29;20054;-83
2023/07/20 22:11:07;;;;;;;0.65;0.52;;;;;;;;;;10211774;28;20035;-83
2023/07/20 22:16:12;;;;;;;2.05;0.50;;;;;;;;;;10205505;29;20127;-83
2023/07/20 22:21:15;;;;;;;1.67;0.60;;;;;;;;;;10224436;29;20050;-82
2023/07/20 22:26:19;;;;;;;1.02;0.50;;;;;;;;;;10206216;29;20050;-83
2023/07/20 22:31:24;;;;;;;1.58;0.45;;;;;;;;;;10224075;29;20043;-83
2023/07/20 22:36:27;;;;;;;2.33;0.50;;;;;;;;;;10198164;29;20048;-83
2023/07/20 22:41:30;;;;;;;1.73;0.52;;;;;;;;;;10197043;28;20040;-83
2023/07/20 22:46:36;;;;;;;1.02;0.50;;;;;;;;;;10198593;28;20513;-83
2023/07/20 22:51:39;;;;;;;0.70;0.70;;;;;;;;;;10202406;28;20122;-83
2023/07/20 22:56:42;;;;;;;4.80;0.70;;;;;;;;;;10212286;29;20047;-83
2023/07/20 23:01:47;;;;;;;1.50;0.40;;;;;;;;;;10219706;29;20059;-83
2023/07/20 23:06:51;;;;;;;0.60;0.57;;;;;;;;;;10207230;29;20056;-83
2023/07/20 23:11:55;;;;;;;1.15;0.70;;;;;;;;;;10222822;28;20081;-83
2023/07/20 23:17:00;;;;;;;0.60;0.40;;;;;;;;;;10221589;29;20454;-83
2023/07/20 23:22:06;;;;;;;3.55;0.52;;;;;;;;;;10215491;28;20047;-83
2023/07/20 23:27:09;;;;;;;2.45;0.52;;;;;;;;;;10210113;29;20035;-83
2023/07/20 23:32:15;;;;;;;0.75;0.50;;;;;;;;;;10216039;29;20931;-83
2023/07/20 23:37:19;;;;;;;0.65;0.50;;;;;;;;;;10226416;28;20134;-83
2023/07/20 23:42:22;;;;;;;0.57;0.40;;;;;;;;;;10222345;29;20126;-83
2023/07/20 23:47:27;;;;;;;0.80;0.60;;;;;;;;;;10211833;29;20115;-84
2023/07/20 23:52:34;;;;;;;2.53;0.88;;;;;;;;;;10230947;28;20526;-84
2023/07/20 23:57:38;;;;;;;0.70;0.50;;;;;;;;;;10214327;28;20055;-84
